Check out our new PWSWeather beta!
PWSweather.com
Personal Weather Stations
Station Observations
KVAGLENALL
West Henrico, Glen Allen, VA 23060-6503

West HenricoGlen Allen, VA 23060-6503

Lat: 37.6554, Lon: -77.5693

Elevation: 273

Station Type: Davis Vantage Pro II

www.glenallenweather.com

High Low Average
Temperature 85.9°F29.9°C 67.4°F19.7°C 76.9°F24.9°C
Dew Point 72.4°F22.4°C 66.0°F18.9°C 69.1°F20.6°C
Winds 11.0 mph 17.7 kmh Calm Calm 3.0 mph ESE4.8 kmh ESE
Wind Gusts 13.1 mph21.1 kmh -- 5.0 mph8.0 kmh
Humidity 96% 59% 78%
Pressure 30.26 in1024.7 mb 30.15 in1021.0 mb -
Precipitation 0.00 in0.0 mm - -
Hour Temp Dew Point Humidity Winds Wind Gusts Pressure Precip Precip Rate Daily Precip Total
12:30 AM 72.0°F22.2°C 67.2°F19.6°C 85% Calm Calm -- 30.23 in1023.7 mb 0.00 in0.0 mm 0.00 in0.0 mm 0.00 in0.0 mm
01:30 AM 71.3°F21.8°C 67.2°F19.6°C 87% 1.0 mph E1.6 kmh E 2.0 mph3.2 kmh 30.23 in1023.7 mb 0.00 in0.0 mm 0.00 in0.0 mm 0.00 in0.0 mm
02:30 AM 70.5°F21.4°C 66.7°F19.3°C 88% Calm Calm 1.0 mph1.6 kmh 30.22 in1023.4 mb 0.00 in0.0 mm 0.00 in0.0 mm 0.00 in0.0 mm
03:30 AM 69.0°F20.6°C 66.3°F19.1°C 91% 1.0 mph E1.6 kmh E 1.0 mph1.6 kmh 30.22 in1023.4 mb 0.00 in0.0 mm 0.00 in0.0 mm 0.00 in0.0 mm
04:30 AM 68.5°F20.3°C 66.1°F18.9°C 92% Calm Calm -- 30.22 in1023.4 mb 0.00 in0.0 mm 0.00 in0.0 mm 0.00 in0.0 mm
05:30 AM 67.4°F19.7°C 66.0°F18.9°C 95% Calm Calm -- 30.22 in1023.4 mb 0.00 in0.0 mm 0.00 in0.0 mm 0.00 in0.0 mm
06:30 AM 69.1°F20.6°C 68.0°F20.0°C 96% 3.0 mph ENE4.8 kmh ENE 3.0 mph4.8 kmh 30.23 in1023.7 mb 0.00 in0.0 mm 0.00 in0.0 mm 0.00 in0.0 mm
07:30 AM 71.9°F22.2°C 70.4°F21.3°C 95% 7.0 mph E11.3 kmh E 9.1 mph14.6 kmh 30.24 in1024.0 mb 0.00 in0.0 mm 0.00 in0.0 mm 0.00 in0.0 mm
08:30 AM 77.3°F25.2°C 72.4°F22.4°C 85% 2.0 mph SE3.2 kmh SE 6.1 mph9.8 kmh 30.25 in1024.4 mb 0.00 in0.0 mm 0.00 in0.0 mm 0.00 in0.0 mm
09:30 AM 78.8°F26.0°C 72.1°F22.3°C 80% 5.0 mph E8.0 kmh E 6.1 mph9.8 kmh 30.26 in1024.7 mb 0.00 in0.0 mm 0.00 in0.0 mm 0.00 in0.0 mm
10:30 AM 82.0°F27.8°C 72.1°F22.3°C 72% 1.0 mph SSE1.6 kmh SSE 4.0 mph6.4 kmh 30.26 in1024.7 mb 0.00 in0.0 mm 0.00 in0.0 mm 0.00 in0.0 mm
11:30 AM 85.4°F29.7°C 72.3°F22.4°C 65% 6.0 mph ESE9.7 kmh ESE 6.1 mph9.8 kmh 30.24 in1024.0 mb 0.00 in0.0 mm 0.00 in0.0 mm 0.00 in0.0 mm
12:30 PM 85.9°F29.9°C 71.9°F22.2°C 63% 6.0 mph ESE9.7 kmh ESE 10.1 mph16.3 kmh 30.22 in1023.4 mb 0.00 in0.0 mm 0.00 in0.0 mm 0.00 in0.0 mm
01:30 PM 84.6°F29.2°C 71.6°F22.0°C 65% 2.0 mph SE3.2 kmh SE 6.1 mph9.8 kmh 30.20 in1022.7 mb 0.00 in0.0 mm 0.00 in0.0 mm 0.00 in0.0 mm
02:30 PM 85.2°F29.6°C 70.7°F21.5°C 62% 4.0 mph E6.4 kmh E 10.1 mph16.3 kmh 30.18 in1022.0 mb 0.00 in0.0 mm 0.00 in0.0 mm 0.00 in0.0 mm
03:30 PM 85.4°F29.7°C 70.9°F21.6°C 62% 4.0 mph SE6.4 kmh SE 7.1 mph11.4 kmh 30.16 in1021.3 mb 0.00 in0.0 mm 0.00 in0.0 mm 0.00 in0.0 mm
04:30 PM 84.6°F29.2°C 68.7°F20.4°C 59% 2.0 mph ESE3.2 kmh ESE 10.1 mph16.3 kmh 30.16 in1021.3 mb 0.00 in0.0 mm 0.00 in0.0 mm 0.00 in0.0 mm
05:30 PM 82.7°F28.2°C 67.9°F19.9°C 61% 11.0 mph ESE17.7 kmh ESE 13.1 mph21.1 kmh 30.16 in1021.3 mb 0.00 in0.0 mm 0.00 in0.0 mm 0.00 in0.0 mm
06:30 PM 79.9°F26.6°C 67.1°F19.5°C 65% 3.0 mph SSE4.8 kmh SSE 6.1 mph9.8 kmh 30.16 in1021.3 mb 0.00 in0.0 mm 0.00 in0.0 mm 0.00 in0.0 mm
07:30 PM 78.0°F25.6°C 67.0°F19.4°C 69% 4.0 mph SE6.4 kmh SE 7.1 mph11.4 kmh 30.16 in1021.3 mb 0.00 in0.0 mm 0.00 in0.0 mm 0.00 in0.0 mm
08:30 PM 76.2°F24.6°C 67.7°F19.8°C 75% Calm Calm 4.0 mph6.4 kmh 30.17 in1021.7 mb 0.00 in0.0 mm 0.00 in0.0 mm 0.00 in0.0 mm
09:30 PM 74.8°F23.8°C 68.9°F20.5°C 82% 2.0 mph ESE3.2 kmh ESE 6.1 mph9.8 kmh 30.17 in1021.7 mb 0.00 in0.0 mm 0.00 in0.0 mm 0.00 in0.0 mm
10:30 PM 73.2°F22.9°C 69.1°F20.6°C 87% Calm Calm 1.0 mph1.6 kmh 30.17 in1021.7 mb 0.00 in0.0 mm 0.00 in0.0 mm 0.00 in0.0 mm
11:30 PM 72.2°F22.3°C 69.1°F20.6°C 90% Calm Calm 4.0 mph6.4 kmh 30.15 in1021.0 mb 0.00 in0.0 mm 0.00 in0.0 mm 0.00 in0.0 mm